Pigalopp — LG3587 — position and weather

sailwx.info

Track history (hours):
 
Tides and Currents Weather Stations Pressure Air Temp Water Temp Dewpoint Dewpoint Depression Visibility Wind Speed Wind Dir Waves Ship Positions

Pigalopp

Last reported at 2016-Jun-17 10:32 UTC. Time now 2016-Jun-29 16:28 UTC.
Position N 58°02' E 006°48'.
Warning: this ship's position is 12 days out of date.

Length 13 m.

Type: Sailing vessel. MMSI: 257735890.

Date/timePositionNaut miles runAvg speedWind from/ knotsBaromVisibWave heightAir tempDewpointWater temp
2016-Jun-17 10:32N 58°02' E 006°48'7 7.3
2016-Jun-17 09:33N 58°05' E 006°36'8 7.5
2016-Jun-17 08:33N 58°10' E 006°25'45 3.4
2016-Jun-16 19:09N 58°43' E 005°28'3 5.8
2016-Jun-16 18:34N 58°47' E 005°27'7 7.3
2016-Jun-16 17:34N 58°54' E 005°31'8 6.9
2016-Jun-16 16:27N 59°01' E 005°34'6 6.0
2016-Jun-16 15:25N 59°01' E 005°45'1 0.1
2016-Jun-15 20:32N 58°59' E 005°46'3 0.1
2016-Jun-13 19:22N 59°01' E 005°40'0 0.1
2016-Jun-13 12:32N 59°01' E 005°40'1 0.3
2016-Jun-13 08:18N 59°02' E 005°38'  
Track history (hours):
 
Tides and Currents Weather Stations Pressure Air Temp Water Temp Dewpoint Dewpoint Depression Visibility Wind Speed Wind Dir Waves Ship Positions

Pigalopp

Last reported at 2016-Jun-17 10:32 UTC. Time now 2016-Jun-29 16:28 UTC.
Position N 58°02' E 006°48'.
Warning: this ship's position is 12 days out of date.

Length 13 m.

Type: Sailing vessel. MMSI: 257735890.

Date/timePositionNaut miles runAvg speedWind from/ knotsBaromVisibWave heightAir tempDewpointWater temp
2016-Jun-17 10:32N 58°02' E 006°48'7 7.3
2016-Jun-17 09:33N 58°05' E 006°36'8 7.5
2016-Jun-17 08:33N 58°10' E 006°25'45 3.4
2016-Jun-16 19:09N 58°43' E 005°28'3 5.8
2016-Jun-16 18:34N 58°47' E 005°27'7 7.3
2016-Jun-16 17:34N 58°54' E 005°31'8 6.9
2016-Jun-16 16:27N 59°01' E 005°34'6 6.0
2016-Jun-16 15:25N 59°01' E 005°45'1 0.1
2016-Jun-15 20:32N 58°59' E 005°46'3 0.1
2016-Jun-13 19:22N 59°01' E 005°40'0 0.1
2016-Jun-13 12:32N 59°01' E 005°40'1 0.3
2016-Jun-13 08:18N 59°02' E 005°38'  

Dump ship's entire track history